Portada
METAR-TAF:

METAR-TAF

Aeroports :

Torí, Itàlia

latitud: 45-13N, longitud: 007-39E, altitud: 301 m

Observació

L'informe es va fer fa 19 minuts, a les 21:50 UTC
Vent 4 kt del Nord-Oest
Temperatura 20°C
Humitat 60%
Pressió 1024 hPa
Visibilitat 10 km o més

METAR: LIMF 252150Z AUTO 31004KT 9999 NCD 20/12 Q1024

Hora: 00:09 (22:09 UTC)

Pronòstic

L'informe es va fer fa 5 hores i 9 minuts, a les 17:00 UTC
Pronòstic vàlid del 25 a les 18 UTC al 26 a les 18 UTC
Vent 5 kt amb direcció variable
Visibilitat 10 km o més
sense núvols per sota de 1500 mi sense presència de cumulonimbus.

TAF: LIMF 251700Z 2518/2618 VRB05KT CAVOK

Observacions i pronòstics meteorològics de més de 4000 aeroports (METAR i TAF).

Les estacions disponibles són els punts grocs i vermells al mapa.

Posi el ratolí al punt desitjat per veure el nom de l'estació.

Feu clic per veure les observacions i els pronòstics meteorològics.

Per canviar el mapa: feu clic els botons verds amb una creu de color negre per apropar; al botó verd amb un guió per allunyar la imatge; o en les fletxes verdes per a mapes adjacents.


METAR-TAF: